Minerva Concert — SVWC — position and weather

sailwx.info

Track history (hours):
 
Tides and Currents Weather Stations Pressure Air Temp Water Temp Dewpoint Dewpoint Depression Visibility Wind Speed Wind Dir Waves Ship Positions

Minerva Concert

Last reported at 2015-Sep-01 03:19 UTC. Time now 2015-Sep-01 10:04 UTC.
Position N 36°08' W 002°44'.

Length 240 m; draft 8.2 m.

Type: Ship. MMSI: 240110000.

Date/timePositionNaut miles runAvg speedWind from/ knotsBaromVisibWave heightAir tempDewpointWater temp
2015-Sep-01 03:19N 36°08' W 002°44'4 5.4
2015-Sep-01 02:33N 36°08' W 002°39'43 5.2
2015-Aug-31 18:19N 36°15' W 001°46'4 5.2
2015-Aug-31 17:33N 36°16' W 001°42'7 6.8
2015-Aug-31 16:33N 36°18' W 001°34'8 7.7
2015-Aug-31 15:34N 36°24' W 001°27'5 5.0
2015-Aug-31 14:34N 36°24' W 001°21'5 5.2
2015-Aug-31 13:33N 36°25' W 001°14'5 5.2
2015-Aug-31 12:33N 36°26' W 001°08'6 6.1
2015-Aug-31 11:34N 36°28' W 001°01'1211.7
2015-Aug-31 10:33N 36°32' W 000°47'1211.9
2015-Aug-31 09:33N 36°37' W 000°33'1211.7
2015-Aug-31 08:33N 36°40' W 000°19'1211.9
2015-Aug-31 07:33N 36°43' W 000°05'1211.6
2015-Aug-31 06:33N 36°47' E 000°09'1411.2
2015-Aug-31 05:16N 36°52' E 000°26'1210.8
2015-Aug-31 04:09N 36°56' E 000°40'1010.8
2015-Aug-31 03:13N 36°59' E 000°52'810.7
2015-Aug-31 02:26N 37°01' E 001°02'910.7
2015-Aug-31 01:33N 37°03' E 001°14'1211.2
2015-Aug-31 00:30N 37°07' E 001°28'1111.4
2015-Aug-30 23:31N 37°11' E 001°41'1211.7
2015-Aug-30 22:30N 37°14' E 001°55'1412.1
2015-Aug-30 21:19N 37°18' E 002°13'3812.1
2015-Aug-30 18:12N 37°32' E 002°57'6911.8
2015-Aug-30 12:22N 37°46' E 004°23'1012.0
2015-Aug-30 11:34N 37°46' E 004°35'1211.8
2015-Aug-30 10:33N 37°47' E 004°50'1211.8
2015-Aug-30 09:34N 37°47' E 005°04'1311.8
2015-Aug-30 08:25N 37°48' E 005°22'4812.2
2015-Aug-30 04:32N 37°48' E 006°22'1312.6
2015-Aug-30 03:32N 37°48' E 006°38'3812.7
2015-Aug-30 00:31N 37°49' E 007°26'2512.4
2015-Aug-29 22:31N 37°50' E 007°57'1212.1
2015-Aug-29 21:31N 37°50' E 008°13'1211.9
2015-Aug-29 20:32N 37°50' E 008°27'1311.6
2015-Aug-29 19:23N 37°51' E 008°44'1011.8
2015-Aug-29 18:33N 37°51' E 008°57'1211.8
2015-Aug-29 17:33N 37°50' E 009°12'2411.6
2015-Aug-29 15:29N 37°53' E 009°42'6211.6
2015-Aug-29 10:10N 37°35' E 010°57'812.9
2015-Aug-29 09:33N 37°31' E 011°06'1514.8
2015-Aug-29 08:32N 37°23' E 011°21'1414.3
2015-Aug-29 07:33N 37°16' E 011°37'1412.3
2015-Aug-29 06:26N 37°10' E 011°52'1112.0
2015-Aug-29 05:33N 37°05' E 012°04'1212.1
2015-Aug-29 04:33N 36°60' E 012°17'2411.8
2015-Aug-29 02:32N 36°49' E 012°44'2511.5
2015-Aug-29 00:24N 36°41' E 013°13'1011.8
2015-Aug-28 23:33N 36°39' E 013°25'1212.3
2015-Aug-28 22:33N 36°36' E 013°40'1211.9
2015-Aug-28 21:33N 36°33' E 013°55'1212.2
2015-Aug-28 20:33N 36°30' E 014°09'1212.2
2015-Aug-28 19:33N 36°27' E 014°24'1211.9
2015-Aug-28 18:33N 36°23' E 014°38'1212.0
2015-Aug-28 17:33N 36°21' E 014°53'1212.2
2015-Aug-28 16:33N 36°18' E 015°07'1212.0
2015-Aug-28 15:32N 36°21' E 015°22'1212.1
2015-Aug-28 14:33N 36°25' E 015°36'1212.3
2015-Aug-28 13:32N 36°29' E 015°50'1212.4
2015-Aug-28 12:32N 36°34' E 016°05'1212.4
2015-Aug-28 11:33N 36°38' E 016°19'  
2015-Aug-25 12:04N 38°03' E 020°38'  
Track history (hours):
 
Tides and Currents Weather Stations Pressure Air Temp Water Temp Dewpoint Dewpoint Depression Visibility Wind Speed Wind Dir Waves Ship Positions

Minerva Concert

Last reported at 2015-Sep-01 03:19 UTC. Time now 2015-Sep-01 10:04 UTC.
Position N 36°08' W 002°44'.

Length 240 m; draft 8.2 m.

Type: Ship. MMSI: 240110000.

Date/timePositionNaut miles runAvg speedWind from/ knotsBaromVisibWave heightAir tempDewpointWater temp
2015-Sep-01 03:19N 36°08' W 002°44'4 5.4
2015-Sep-01 02:33N 36°08' W 002°39'43 5.2
2015-Aug-31 18:19N 36°15' W 001°46'4 5.2
2015-Aug-31 17:33N 36°16' W 001°42'7 6.8
2015-Aug-31 16:33N 36°18' W 001°34'8 7.7
2015-Aug-31 15:34N 36°24' W 001°27'5 5.0
2015-Aug-31 14:34N 36°24' W 001°21'5 5.2
2015-Aug-31 13:33N 36°25' W 001°14'5 5.2
2015-Aug-31 12:33N 36°26' W 001°08'6 6.1
2015-Aug-31 11:34N 36°28' W 001°01'1211.7
2015-Aug-31 10:33N 36°32' W 000°47'1211.9
2015-Aug-31 09:33N 36°37' W 000°33'1211.7
2015-Aug-31 08:33N 36°40' W 000°19'1211.9
2015-Aug-31 07:33N 36°43' W 000°05'1211.6
2015-Aug-31 06:33N 36°47' E 000°09'1411.2
2015-Aug-31 05:16N 36°52' E 000°26'1210.8
2015-Aug-31 04:09N 36°56' E 000°40'1010.8
2015-Aug-31 03:13N 36°59' E 000°52'810.7
2015-Aug-31 02:26N 37°01' E 001°02'910.7
2015-Aug-31 01:33N 37°03' E 001°14'1211.2
2015-Aug-31 00:30N 37°07' E 001°28'1111.4
2015-Aug-30 23:31N 37°11' E 001°41'1211.7
2015-Aug-30 22:30N 37°14' E 001°55'1412.1
2015-Aug-30 21:19N 37°18' E 002°13'3812.1
2015-Aug-30 18:12N 37°32' E 002°57'6911.8
2015-Aug-30 12:22N 37°46' E 004°23'1012.0
2015-Aug-30 11:34N 37°46' E 004°35'1211.8
2015-Aug-30 10:33N 37°47' E 004°50'1211.8
2015-Aug-30 09:34N 37°47' E 005°04'1311.8
2015-Aug-30 08:25N 37°48' E 005°22'4812.2
2015-Aug-30 04:32N 37°48' E 006°22'1312.6
2015-Aug-30 03:32N 37°48' E 006°38'3812.7
2015-Aug-30 00:31N 37°49' E 007°26'2512.4
2015-Aug-29 22:31N 37°50' E 007°57'1212.1
2015-Aug-29 21:31N 37°50' E 008°13'1211.9
2015-Aug-29 20:32N 37°50' E 008°27'1311.6
2015-Aug-29 19:23N 37°51' E 008°44'1011.8
2015-Aug-29 18:33N 37°51' E 008°57'1211.8
2015-Aug-29 17:33N 37°50' E 009°12'2411.6
2015-Aug-29 15:29N 37°53' E 009°42'6211.6
2015-Aug-29 10:10N 37°35' E 010°57'812.9
2015-Aug-29 09:33N 37°31' E 011°06'1514.8
2015-Aug-29 08:32N 37°23' E 011°21'1414.3
2015-Aug-29 07:33N 37°16' E 011°37'1412.3
2015-Aug-29 06:26N 37°10' E 011°52'1112.0
2015-Aug-29 05:33N 37°05' E 012°04'1212.1
2015-Aug-29 04:33N 36°60' E 012°17'2411.8
2015-Aug-29 02:32N 36°49' E 012°44'2511.5
2015-Aug-29 00:24N 36°41' E 013°13'1011.8
2015-Aug-28 23:33N 36°39' E 013°25'1212.3
2015-Aug-28 22:33N 36°36' E 013°40'1211.9
2015-Aug-28 21:33N 36°33' E 013°55'1212.2
2015-Aug-28 20:33N 36°30' E 014°09'1212.2
2015-Aug-28 19:33N 36°27' E 014°24'1211.9
2015-Aug-28 18:33N 36°23' E 014°38'1212.0
2015-Aug-28 17:33N 36°21' E 014°53'1212.2
2015-Aug-28 16:33N 36°18' E 015°07'1212.0
2015-Aug-28 15:32N 36°21' E 015°22'1212.1
2015-Aug-28 14:33N 36°25' E 015°36'1212.3
2015-Aug-28 13:32N 36°29' E 015°50'1212.4
2015-Aug-28 12:32N 36°34' E 016°05'1212.4
2015-Aug-28 11:33N 36°38' E 016°19'  
2015-Aug-25 12:04N 38°03' E 020°38'  

Dump ship's entire track history